createdAt,value
2023-02-19T00:02:19.408Z,101224.28
2023-02-19T00:04:47.484Z,101215.56
2023-02-19T00:07:15.623Z,101227.72
2023-02-19T00:09:45.096Z,101224.25
2023-02-19T00:12:13.119Z,101215.56
2023-02-19T00:14:41.064Z,101199.91
2023-02-19T00:17:09.132Z,101202.50
2023-02-19T00:19:37.054Z,101212.06
2023-02-19T00:22:04.975Z,101202.50
2023-02-19T00:24:33.000Z,101205.97
2023-02-19T00:27:02.387Z,101208.59
2023-02-19T00:29:30.402Z,101207.69
2023-02-19T00:31:58.634Z,101204.22
2023-02-19T00:34:26.814Z,101185.09
2023-02-19T00:36:55.442Z,101204.22
2023-02-19T00:39:23.306Z,101198.13
2023-02-19T00:41:52.241Z,101202.47
2023-02-19T00:44:22.299Z,101198.97
2023-02-19T00:46:50.306Z,101191.16
2023-02-19T00:49:21.024Z,101196.38
2023-02-19T00:51:50.401Z,101199.00
2023-02-19T00:54:19.151Z,101199.00
2023-02-19T00:56:47.901Z,101192.03
2023-02-19T00:59:16.461Z,101183.31
2023-02-19T01:01:46.627Z,101181.59
2023-02-19T01:04:16.398Z,101192.91
2023-02-19T01:06:44.439Z,101187.66
2023-02-19T01:09:12.481Z,101182.44
2023-02-19T01:11:40.468Z,101175.47
2023-02-19T01:14:08.444Z,101172.88
2023-02-19T01:16:36.898Z,101170.19
2023-02-19T01:19:06.208Z,101167.59
2023-02-19T01:21:34.193Z,101166.72
2023-02-19T01:24:02.118Z,101167.59
2023-02-19T01:26:32.483Z,101165.81
2023-02-19T01:29:01.093Z,101158.91
2023-02-19T01:31:30.189Z,101168.47
2023-02-19T01:34:00.843Z,101170.16
2023-02-19T01:36:33.357Z,101166.69
2023-02-19T01:39:03.767Z,101171.91
2023-02-19T01:41:35.108Z,101164.94
2023-02-19T01:44:07.876Z,101164.06
2023-02-19T01:46:38.583Z,101171.88
2023-02-19T01:49:11.728Z,101173.63
2023-02-19T01:51:47.518Z,101167.56
2023-02-19T01:54:18.684Z,101168.41
2023-02-19T01:56:48.939Z,101168.41
2023-02-19T01:59:19.452Z,101164.06
2023-02-19T02:01:47.926Z,101167.53
2023-02-19T02:04:17.175Z,101178.84
2023-02-19T02:06:51.191Z,101173.63
2023-02-19T02:09:38.811Z,101168.38
2023-02-19T02:12:07.179Z,101169.28
2023-02-19T02:14:39.168Z,101172.75
2023-02-19T02:17:16.792Z,101176.22
2023-02-19T02:20:23.722Z,101174.47
2023-02-19T02:23:01.002Z,101161.44
2023-02-19T02:25:58.842Z,101159.69
2023-02-19T02:28:53.589Z,101165.78
2023-02-19T02:31:29.591Z,101160.56
2023-02-19T02:34:05.513Z,101165.75
2023-02-19T02:36:35.631Z,101166.63
2023-02-19T02:39:07.274Z,101156.16
2023-02-19T02:41:43.907Z,101150.06
2023-02-19T02:44:13.082Z,101159.63
2023-02-19T02:46:46.025Z,101156.13
2023-02-19T02:49:23.041Z,101156.97
2023-02-19T02:51:55.321Z,101150.00
2023-02-19T02:54:48.535Z,101143.97
2023-02-19T02:57:19.890Z,101149.19
2023-02-19T02:59:52.621Z,101151.84
2023-02-19T03:02:26.243Z,101155.28
2023-02-19T03:05:17.636Z,101150.13
2023-02-19T03:07:49.470Z,101154.44
2023-02-19T03:10:26.310Z,101166.66
2023-02-19T03:13:22.574Z,101166.69
2023-02-19T03:16:16.449Z,101160.66
2023-02-19T03:19:07.362Z,101165.84
2023-02-19T03:21:39.212Z,101162.38
2023-02-19T03:24:29.900Z,101168.47
2023-02-19T03:27:00.204Z,101169.34
2023-02-19T03:29:36.397Z,101171.97
2023-02-19T03:32:09.630Z,101169.38
2023-02-19T03:34:43.980Z,101171.13
2023-02-19T03:37:14.650Z,101171.97
2023-02-19T03:39:45.601Z,101179.78
2023-02-19T03:42:23.144Z,101180.69
2023-02-19T03:45:03.027Z,101186.75
2023-02-19T03:47:39.935Z,101186.78
2023-02-19T03:50:16.091Z,101193.72
2023-02-19T03:52:57.447Z,101196.34
2023-02-19T03:55:32.655Z,101195.47
2023-02-19T03:58:10.177Z,101199.81
2023-02-19T04:00:43.728Z,101195.47
2023-02-19T04:03:21.666Z,101199.81
2023-02-19T04:05:56.770Z,101201.56
2023-02-19T04:08:26.672Z,101198.06
2023-02-19T04:11:01.682Z,101206.78
2023-02-19T04:13:38.278Z,101199.84
2023-02-19T04:16:12.247Z,101209.38
2023-02-19T04:18:43.476Z,101220.69
2023-02-19T04:21:13.774Z,101214.59
2023-02-19T04:23:45.490Z,101223.28
2023-02-19T04:26:15.963Z,101227.66
2023-02-19T04:28:44.227Z,101238.09
2023-02-19T04:31:12.934Z,101230.28
2023-02-19T04:33:41.280Z,101224.22
2023-02-19T04:36:12.882Z,101220.75
2023-02-19T04:38:40.828Z,101237.28
2023-02-19T04:41:10.508Z,101235.50
2023-02-19T04:43:38.559Z,101239.91
2023-02-19T04:46:06.840Z,101241.63
2023-02-19T04:48:34.980Z,101256.41
2023-02-19T04:51:06.434Z,101252.94
2023-02-19T04:53:35.768Z,101249.47
2023-02-19T04:56:08.707Z,101253.78
2023-02-19T04:58:37.091Z,101265.09
2023-02-19T05:01:05.840Z,101259.00
2023-02-19T05:03:35.107Z,101259.03
2023-02-19T05:06:04.213Z,101255.56
2023-02-19T05:08:32.500Z,101265.09
2023-02-19T05:11:03.022Z,101266.00
2023-02-19T05:13:31.615Z,101260.78
2023-02-19T05:16:02.341Z,101263.38
2023-02-19T05:18:31.997Z,101266.00
2023-02-19T05:21:00.726Z,101269.47
2023-02-19T05:23:29.636Z,101272.09
2023-02-19T05:25:57.508Z,101265.16
2023-02-19T05:28:29.613Z,101263.41
2023-02-19T05:30:58.027Z,101267.75
2023-02-19T05:33:27.240Z,101279.06
2023-02-19T05:35:57.015Z,101270.38
2023-02-19T05:38:25.407Z,101277.34
2023-02-19T05:40:53.397Z,101280.81
2023-02-19T05:43:21.415Z,101273.00
2023-02-19T05:45:51.038Z,101284.31
2023-02-19T05:48:18.988Z,101292.13
2023-02-19T05:50:46.935Z,101306.06
2023-02-19T05:53:15.004Z,101304.31
2023-02-19T05:55:42.911Z,101313.88
2023-02-19T05:58:10.798Z,101311.25
2023-02-19T06:00:38.830Z,101313.88
2023-02-19T06:03:08.104Z,101321.69
2023-02-19T06:05:36.025Z,101319.94
2023-02-19T06:08:03.977Z,101327.78
2023-02-19T06:10:31.840Z,101323.41
2023-02-19T06:12:59.920Z,101325.16
2023-02-19T06:15:27.834Z,101326.91
2023-02-19T06:17:55.945Z,101335.59
2023-02-19T06:20:26.384Z,101342.56
2023-02-19T06:22:54.591Z,101341.69
2023-02-19T06:25:23.067Z,101334.72
2023-02-19T06:27:51.160Z,101336.47
2023-02-19T06:30:19.210Z,101336.50
2023-02-19T06:32:47.031Z,101349.53
2023-02-19T06:35:15.017Z,101352.97
2023-02-19T06:37:47.221Z,101372.09
2023-02-19T06:40:15.152Z,101352.97
2023-02-19T06:42:43.231Z,101351.25
2023-02-19T06:45:11.154Z,101353.00
2023-02-19T06:47:39.294Z,101356.47
2023-02-19T06:50:07.667Z,101363.44
2023-02-19T06:52:35.711Z,101372.09
2023-02-19T06:55:05.798Z,101374.72
2023-02-19T06:57:33.701Z,101382.56
2023-02-19T07:00:01.997Z,101379.09
2023-02-19T07:02:29.973Z,101392.97
2023-02-19T07:04:58.414Z,101388.66
2023-02-19T07:07:26.286Z,101388.63
2023-02-19T07:09:54.226Z,101398.19
2023-02-19T07:12:23.542Z,101393.84
2023-02-19T07:14:51.473Z,101407.78
2023-02-19T07:17:19.758Z,101401.69
2023-02-19T07:19:47.685Z,101410.38
2023-02-19T07:22:15.663Z,101419.06
2023-02-19T07:24:43.991Z,101424.25
2023-02-19T07:27:12.413Z,101423.41
2023-02-19T07:29:41.845Z,101432.09
2023-02-19T07:32:10.225Z,101437.31
2023-02-19T07:34:38.256Z,101440.78
2023-02-19T07:37:06.205Z,101442.53
2023-02-19T07:39:34.206Z,101446.03
2023-02-19T07:42:02.124Z,101456.44
2023-02-19T07:44:33.344Z,101453.81
2023-02-19T07:47:02.699Z,101460.78
2023-02-19T07:49:30.538Z,101471.22
2023-02-19T07:51:58.628Z,101476.44
2023-02-19T07:54:26.496Z,101479.03
2023-02-19T07:56:54.367Z,101476.44
2023-02-19T07:59:22.590Z,101474.72
2023-02-19T08:02:07.851Z,101482.53
2023-02-19T08:04:37.266Z,101486.00
2023-02-19T08:07:05.568Z,101484.25
2023-02-19T08:09:34.423Z,101483.41
2023-02-19T08:12:20.145Z,101495.59
2023-02-19T08:14:48.136Z,101502.56
2023-02-19T08:17:16.204Z,101507.78
2023-02-19T08:19:45.587Z,101505.19
2023-02-19T08:22:16.264Z,101506.03
2023-02-19T08:24:45.104Z,101513.88
2023-02-19T08:27:13.221Z,101519.09
2023-02-19T08:29:41.333Z,101524.31
2023-02-19T08:32:09.308Z,101521.69
2023-02-19T08:34:37.543Z,101520.84
2023-02-19T08:37:07.326Z,101530.38
2023-02-19T08:39:35.223Z,101532.13
2023-02-19T08:42:03.289Z,101539.09
2023-02-19T08:44:31.309Z,101551.25
2023-02-19T08:46:59.613Z,101545.19
2023-02-19T08:49:27.898Z,101543.44
2023-02-19T08:51:55.860Z,101547.81
2023-02-19T08:54:25.137Z,101546.94
2023-02-19T08:56:53.087Z,101546.94
2023-02-19T08:59:20.990Z,101548.72
2023-02-19T09:01:48.901Z,101548.69
2023-02-19T09:04:17.156Z,101553.06
2023-02-19T09:06:46.432Z,101555.66
2023-02-19T09:09:14.504Z,101560.88
2023-02-19T09:11:44.556Z,101563.47
2023-02-19T09:14:12.558Z,101560.88
2023-02-19T09:16:40.523Z,101560.88
2023-02-19T09:19:08.441Z,101559.13
2023-02-19T09:21:36.486Z,101558.28
2023-02-19T09:24:04.696Z,101566.09
2023-02-19T09:26:32.611Z,101558.25
2023-02-19T09:29:01.979Z,101566.06
2023-02-19T09:31:30.413Z,101562.56
2023-02-19T09:33:58.451Z,101569.53
2023-02-19T09:36:26.432Z,101575.66
2023-02-19T09:38:54.760Z,101583.47
2023-02-19T09:41:30.127Z,101583.50
2023-02-19T09:43:59.547Z,101578.28
2023-02-19T09:46:33.466Z,101589.59
2023-02-19T09:49:06.295Z,101595.69
2023-02-19T09:51:37.717Z,101593.09
2023-02-19T09:54:08.821Z,101597.44
2023-02-19T09:56:36.878Z,101601.78
2023-02-19T09:59:07.108Z,101593.09
2023-02-19T10:01:40.110Z,101598.31
2023-02-19T10:04:08.139Z,101603.53
2023-02-19T10:06:36.270Z,101607.03
2023-02-19T10:09:18.869Z,101613.97
2023-02-19T10:11:47.998Z,101617.47
2023-02-19T10:14:19.834Z,101624.44
2023-02-19T10:16:51.137Z,101617.47
2023-02-19T10:19:19.145Z,101618.31
2023-02-19T10:21:47.469Z,101627.06
2023-02-19T10:24:20.951Z,101632.28
2023-02-19T10:26:50.651Z,101635.75
2023-02-19T10:29:19.715Z,101642.72
2023-02-19T10:31:49.411Z,101652.31
2023-02-19T10:34:22.170Z,101655.78
2023-02-19T10:36:52.110Z,101662.75
2023-02-19T10:39:42.916Z,101674.09
2023-02-19T10:42:19.262Z,101664.50
2023-02-19T10:44:51.258Z,101661.88
2023-02-19T10:47:24.608Z,101663.63
2023-02-19T10:49:54.058Z,101670.59
2023-02-19T10:52:25.571Z,101667.97
2023-02-19T10:54:56.155Z,101682.81
2023-02-19T10:57:37.907Z,101687.16
2023-02-19T11:00:22.989Z,101689.75
2023-02-19T11:03:20.077Z,101693.22
2023-02-19T11:05:56.837Z,101697.59
2023-02-19T11:08:25.507Z,101706.28
2023-02-19T11:10:53.551Z,101704.50
2023-02-19T11:13:28.120Z,101706.25
2023-02-19T11:15:57.260Z,101710.63
2023-02-19T11:18:27.779Z,101701.94
2023-02-19T11:20:58.371Z,101700.19
2023-02-19T11:23:30.242Z,101711.53
2023-02-19T11:26:01.050Z,101711.53
2023-02-19T11:28:33.541Z,101712.47
2023-02-19T11:31:16.855Z,101724.63
2023-02-19T11:33:52.281Z,101724.63
2023-02-19T11:36:30.405Z,101725.50
2023-02-19T11:39:01.946Z,101719.38
2023-02-19T11:42:02.727Z,101714.19
2023-02-19T11:44:44.932Z,101708.06
2023-02-19T11:47:40.929Z,101713.28
2023-02-19T11:50:22.578Z,101718.50
2023-02-19T11:53:02.057Z,101709.78
2023-02-19T11:55:44.199Z,101707.19
2023-02-19T11:58:41.030Z,101711.56
2023-02-19T12:01:19.094Z,101707.16
2023-02-19T12:04:07.576Z,101708.94
2023-02-19T12:06:52.379Z,101709.81
2023-02-19T12:09:36.290Z,101716.78
2023-02-19T12:12:27.333Z,101715.91
2023-02-19T12:15:12.214Z,101705.47
2023-02-19T12:17:54.137Z,101695.84
2023-02-19T12:20:32.014Z,101695.91
2023-02-19T12:23:30.878Z,101688.91
2023-02-19T12:26:04.096Z,101688.00
2023-02-19T12:28:48.062Z,101697.63
2023-02-19T12:31:45.962Z,101697.63
2023-02-19T12:34:30.772Z,101699.34
2023-02-19T12:37:15.382Z,101699.34
2023-02-19T12:39:53.801Z,101701.94
2023-02-19T12:42:40.176Z,101701.03
2023-02-19T12:45:17.535Z,101710.59
2023-02-19T12:48:00.887Z,101710.56
2023-02-19T12:50:31.328Z,101704.41
2023-02-19T12:53:07.214Z,101704.22
2023-02-19T12:55:40.907Z,101707.50
2023-02-19T12:58:17.510Z,101703.91
2023-02-19T13:00:50.672Z,101703.81
2023-02-19T13:03:22.415Z,101703.03
2023-02-19T13:05:56.139Z,101701.53
2023-02-19T13:08:28.629Z,101705.19
2023-02-19T13:11:01.938Z,101717.09
2023-02-19T13:13:35.485Z,101710.19
2023-02-19T13:16:09.780Z,101718.03
2023-02-19T13:18:42.933Z,101727.63
2023-02-19T13:21:12.728Z,101715.59
2023-02-19T13:24:03.316Z,101727.00
2023-02-19T13:26:46.276Z,101730.56
2023-02-19T13:29:28.617Z,101733.25
2023-02-19T13:32:19.231Z,101737.56
2023-02-19T13:35:00.621Z,101739.38
2023-02-19T13:37:32.723Z,101732.41
2023-02-19T13:40:07.310Z,101736.81
2023-02-19T13:42:37.795Z,101732.47
2023-02-19T13:45:07.595Z,101739.47
2023-02-19T13:47:49.954Z,101741.19
2023-02-19T13:50:21.928Z,101741.16
2023-02-19T13:52:50.512Z,101754.16
2023-02-19T13:55:51.121Z,101772.44
2023-02-19T13:58:56.034Z,101789.69
2023-02-19T14:02:13.501Z,101781.91
2023-02-19T14:04:50.379Z,101777.50
2023-02-19T14:07:54.209Z,101773.16
2023-02-19T14:10:57.621Z,101767.09
2023-02-19T14:14:09.842Z,101769.78
2023-02-19T14:17:07.561Z,101776.72
2023-02-19T14:19:54.052Z,101781.16
2023-02-19T14:23:04.672Z,101795.13
2023-02-19T14:25:39.492Z,101790.75
2023-02-19T14:28:18.342Z,101794.28
2023-02-19T14:30:51.762Z,101783.84
2023-02-19T14:33:23.588Z,101796.84
2023-02-19T14:35:56.489Z,101803.81
2023-02-19T14:38:28.620Z,101802.03
2023-02-19T14:40:56.914Z,101807.25
2023-02-19T14:43:26.867Z,101808.16
2023-02-19T14:45:59.982Z,101809.03
2023-02-19T14:48:32.971Z,101812.53
2023-02-19T14:51:05.653Z,101816.00
2023-02-19T14:53:39.378Z,101823.00
2023-02-19T14:56:19.888Z,101818.59
2023-02-19T14:58:47.901Z,101811.69
2023-02-19T15:01:29.979Z,101816.03
2023-02-19T15:03:58.404Z,101817.75
2023-02-19T15:06:28.271Z,101813.41
2023-02-19T15:09:00.704Z,101820.38
2023-02-19T15:11:31.936Z,101826.47
2023-02-19T15:14:02.180Z,101827.34
2023-02-19T15:16:33.698Z,101822.06
2023-02-19T15:19:02.511Z,101813.34
2023-02-19T15:21:33.578Z,101811.56
2023-02-19T15:24:04.052Z,101813.31
2023-02-19T15:26:35.516Z,101807.22
2023-02-19T15:29:10.187Z,101803.75
2023-02-19T15:31:46.158Z,101802.84
2023-02-19T15:34:20.079Z,101795.88
2023-02-19T15:36:50.497Z,101787.13
2023-02-19T15:39:22.678Z,101794.97
2023-02-19T15:41:59.843Z,101782.78
2023-02-19T15:44:37.329Z,101784.59
2023-02-19T15:47:14.357Z,101778.50
2023-02-19T15:49:50.767Z,101762.78
2023-02-19T15:52:25.709Z,101768.88
2023-02-19T15:55:01.023Z,101765.47
2023-02-19T15:57:33.030Z,101752.38
2023-02-19T16:00:07.210Z,101752.38
2023-02-19T16:02:41.757Z,101756.72
2023-02-19T16:05:15.975Z,101770.63
2023-02-19T16:07:44.456Z,101768.03
2023-02-19T16:10:24.760Z,101765.44
2023-02-19T16:13:00.129Z,101767.97
2023-02-19T16:15:30.036Z,101772.31
2023-02-19T16:18:00.501Z,101774.94
2023-02-19T16:20:31.021Z,101765.38
2023-02-19T16:23:02.835Z,101767.97
2023-02-19T16:25:37.829Z,101776.66
2023-02-19T16:28:14.114Z,101781.84
2023-02-19T16:30:42.940Z,101776.56
2023-02-19T16:33:46.483Z,101786.19
2023-02-19T16:36:35.221Z,101796.59
2023-02-19T16:39:23.636Z,101799.19
2023-02-19T16:42:19.356Z,101803.50
2023-02-19T16:44:48.743Z,101813.09
2023-02-19T16:47:34.620Z,101806.97
2023-02-19T16:50:12.771Z,101797.41
2023-02-19T16:52:51.876Z,101814.81
2023-02-19T16:55:19.785Z,101813.91
2023-02-19T16:57:47.814Z,101813.97
2023-02-19T17:00:20.694Z,101822.63
2023-02-19T17:02:50.596Z,101841.81
2023-02-19T17:05:22.152Z,101838.25
2023-02-19T17:07:50.620Z,101839.97
2023-02-19T17:10:20.637Z,101846.06
2023-02-19T17:12:48.768Z,101854.81
2023-02-19T17:15:16.902Z,101859.91
2023-02-19T17:17:45.032Z,101859.06
2023-02-19T17:20:24.039Z,101863.38
2023-02-19T17:22:51.928Z,101874.69
2023-02-19T17:25:20.237Z,101880.75
2023-02-19T17:27:48.525Z,101889.44
2023-02-19T17:30:21.017Z,101878.13
2023-02-19T17:32:48.886Z,101883.31
2023-02-19T17:35:17.372Z,101900.72
2023-02-19T17:37:46.705Z,101898.09
2023-02-19T17:40:32.352Z,101893.75
2023-02-19T17:43:01.350Z,101899.84
2023-02-19T17:45:29.469Z,101910.25
2023-02-19T17:47:57.499Z,101905.81
2023-02-19T17:50:27.959Z,101914.53
2023-02-19T17:52:57.258Z,101916.28
2023-02-19T17:55:26.149Z,101910.16
2023-02-19T17:57:54.636Z,101909.25
2023-02-19T18:00:24.890Z,101914.53
2023-02-19T18:02:53.176Z,101923.19
2023-02-19T18:05:21.470Z,101927.53
2023-02-19T18:07:50.122Z,101926.66
2023-02-19T18:10:21.714Z,101939.63
2023-02-19T18:12:49.657Z,101930.94
2023-02-19T18:15:20.339Z,101930.97
2023-02-19T18:17:49.123Z,101943.13
2023-02-19T18:20:19.410Z,101935.25
2023-02-19T18:22:47.287Z,101945.63
2023-02-19T18:25:16.222Z,101943.03
2023-02-19T18:27:45.609Z,101933.41
2023-02-19T18:30:16.747Z,101938.56
2023-02-19T18:32:45.146Z,101948.13
2023-02-19T18:35:13.042Z,101948.00
2023-02-19T18:37:41.077Z,101952.34
2023-02-19T18:40:10.577Z,101947.16
2023-02-19T18:42:38.528Z,101954.94
2023-02-19T18:45:08.527Z,101959.16
2023-02-19T18:47:36.388Z,101955.72
2023-02-19T18:50:05.821Z,101957.41
2023-02-19T18:52:33.663Z,101963.41
2023-02-19T18:55:01.636Z,101965.19
2023-02-19T18:57:29.528Z,101971.28
2023-02-19T18:59:57.414Z,101965.09
2023-02-19T19:02:29.752Z,101961.59
2023-02-19T19:04:59.536Z,101972.84
2023-02-19T19:07:27.462Z,101985.06
2023-02-19T19:09:56.585Z,101982.53
2023-02-19T19:12:24.477Z,101977.25
2023-02-19T19:14:52.337Z,101987.72
2023-02-19T19:17:20.423Z,101980.66
2023-02-19T19:19:50.074Z,101985.00
2023-02-19T19:22:22.775Z,101985.88
2023-02-19T19:24:50.675Z,101988.47
2023-02-19T19:27:19.578Z,101990.13
2023-02-19T19:29:48.940Z,101991.88
2023-02-19T19:32:16.954Z,101993.69
2023-02-19T19:34:45.179Z,101990.19
2023-02-19T19:37:14.515Z,101995.41
2023-02-19T19:39:43.736Z,102014.50
2023-02-19T19:42:11.724Z,102000.50
2023-02-19T19:44:39.814Z,102005.72
2023-02-19T19:47:08.951Z,102004.91
2023-02-19T19:49:36.823Z,102003.16
2023-02-19T19:52:04.895Z,102004.00
2023-02-19T19:54:34.163Z,102013.53
2023-02-19T19:57:02.148Z,102012.69
2023-02-19T19:59:29.984Z,102005.72
2023-02-19T20:01:58.199Z,102009.13
2023-02-19T20:04:26.676Z,102017.78
2023-02-19T20:06:54.880Z,102015.13
2023-02-19T20:09:25.514Z,101994.28
2023-02-19T20:11:54.789Z,101994.38
2023-02-19T20:14:23.950Z,102002.09
2023-02-19T20:16:51.926Z,101996.94
2023-02-19T20:19:20.901Z,102004.75
2023-02-19T20:21:51.065Z,102014.38
2023-02-19T20:24:21.002Z,102010.00
2023-02-19T20:26:48.973Z,102014.31
2023-02-19T20:29:18.346Z,102031.63
2023-02-19T20:31:50.025Z,102033.44
2023-02-19T20:34:18.660Z,102032.50
2023-02-19T20:36:48.087Z,102042.94
2023-02-19T20:39:16.913Z,102034.16
2023-02-19T20:41:46.111Z,102029.81
2023-02-19T20:44:14.075Z,102028.16
2023-02-19T20:46:45.116Z,102035.09
2023-02-19T20:49:13.273Z,102031.63
2023-02-19T20:51:45.220Z,102033.34
2023-02-19T20:54:13.542Z,102022.78
2023-02-19T20:56:45.006Z,102038.41
2023-02-19T20:59:13.577Z,102035.00
2023-02-19T21:01:42.352Z,102040.09
2023-02-19T21:04:12.385Z,102038.34
2023-02-19T21:06:40.480Z,102037.38
2023-02-19T21:09:08.980Z,102041.72
2023-02-19T21:11:37.208Z,102052.91
2023-02-19T21:14:05.097Z,102052.06
2023-02-19T21:16:33.815Z,102045.09
2023-02-19T21:19:02.162Z,102057.28
2023-02-19T21:21:31.956Z,102057.34
2023-02-19T21:24:00.991Z,102064.28
2023-02-19T21:26:35.593Z,102067.59
2023-02-19T21:29:03.964Z,102069.34
2023-02-19T21:31:39.666Z,102074.34
2023-02-19T21:34:08.795Z,102075.97
2023-02-19T21:36:38.475Z,102080.31
2023-02-19T21:39:08.522Z,102079.47
2023-02-19T21:41:37.012Z,102084.72
2023-02-19T21:44:05.316Z,102079.47
2023-02-19T21:46:33.663Z,102073.25
2023-02-19T21:49:02.559Z,102071.47
2023-02-19T21:51:33.349Z,102073.31
2023-02-19T21:54:03.446Z,102081.84
2023-02-19T21:56:35.863Z,102086.97
2023-02-19T21:59:04.582Z,102068.75
2023-02-19T22:01:34.468Z,102081.81
2023-02-19T22:04:02.587Z,102091.34
2023-02-19T22:06:31.886Z,102085.25
2023-02-19T22:09:00.002Z,102085.28
2023-02-19T22:11:29.901Z,102086.13
2023-02-19T22:13:57.857Z,102079.97
2023-02-19T22:16:26.416Z,102085.94
2023-02-19T22:18:57.129Z,102069.38
2023-02-19T22:21:28.103Z,102078.22
2023-02-19T22:23:56.654Z,102078.09
2023-02-19T22:26:29.944Z,102074.69
2023-02-19T22:28:59.518Z,102071.25
2023-02-19T22:31:28.895Z,102071.25
2023-02-19T22:33:57.527Z,102072.97
2023-02-19T22:36:27.668Z,102067.75
2023-02-19T22:38:55.886Z,102083.09
2023-02-19T22:41:24.434Z,102087.44
2023-02-19T22:43:55.612Z,102086.56
2023-02-19T22:46:25.788Z,102085.63
2023-02-19T22:48:53.703Z,102090.78
2023-02-19T22:51:24.285Z,102088.16
2023-02-19T22:53:54.135Z,102076.00
2023-02-19T22:56:23.729Z,102082.78
2023-02-19T22:58:53.800Z,102080.91
2023-02-19T23:01:22.567Z,102069.47
2023-02-19T23:03:52.856Z,102072.69
2023-02-19T23:06:24.060Z,102063.97
2023-02-19T23:08:52.062Z,102069.22
2023-02-19T23:11:24.606Z,102066.56
2023-02-19T23:13:54.194Z,102056.91
2023-02-19T23:16:22.137Z,102049.88
2023-02-19T23:18:50.385Z,102051.59
2023-02-19T23:21:19.986Z,102062.75
2023-02-19T23:23:48.329Z,102052.19
2023-02-19T23:26:17.596Z,102052.25
2023-02-19T23:28:45.921Z,102054.78
2023-02-19T23:31:16.243Z,102062.50
2023-02-19T23:33:45.151Z,102071.00
2023-02-19T23:36:14.488Z,102065.72
2023-02-19T23:38:45.565Z,102056.09
2023-02-19T23:41:15.046Z,102055.16
2023-02-19T23:43:43.184Z,102052.38
2023-02-19T23:46:14.703Z,102047.09
2023-02-19T23:48:44.058Z,102046.97
2023-02-19T23:51:12.282Z,102036.47
2023-02-19T23:53:40.426Z,102039.69
2023-02-19T23:56:08.685Z,102033.31
2023-02-19T23:58:36.708Z,102032.28
